Keswick, Canada
Current Conditions -  °F | °C
As of 3:35 AM on Saturday 01 Nov 2014 (Local Time) from CYBN Reporting Station
Overcast Overcast  
Wind Chill: 24°   Ceiling: 1200
Heat Index: 32°   Visibility: 9mi
Dew Point: 30°   Wind: 9mph
Humidity: 93%   Direction: 350°N
Pressure: 30.13"   Gusts: NA
Location:  44.24°N, 79.47°W
Report Text: CYBN 010735Z AUTO 35008KT 9SM OVC012 OVC036 00/M01 A3013
Loading
Personal Weather Stations






























Interactive Weather Map
Tropical Storm Tracking
New forecast layout! Learn more

10-Day Weather Forecast

Advertisements
Track Severe Weather on mobile